Archival Weather

Yakutsk

Yakutsk, Russia (UEEE)

Report from: Sunday, February 5, 2023 3:30 AM JST
Current time: Tuesday, July 16, 2024 5:39 PM JST

Current weather – Weather history – Daily summaries
Weather forecast

Present weatherFog
Temperature-43.0°C (-45.4°F)
Dew point-47.0°C (-52.6°F)
Winds Calm
Visibility1312.3 ft. (400 m)
Altimeter30.06 in.Hg (1018 mB)
Precip. events QF 5:35 AM
Relative humidity64 %
Density altitude-8,033 ft. (-2,449 m)
Remarks No significant changes expected in the next two hours
Flight conditions Low Instrument Meteorological Conditions
Raw dataUEEE 041830Z 00000MPS 0400 0350NE R23L/1000D FG NSC M43/M47 Q1018 R23L/490150 NOSIG RMK QFE755
An error has occurred. This application may no longer respond until reloaded. Reload 🗙